Airfield :
LOGIN :

Register | Disclaimer

   EN    FR    IT 

 










Legend :    VFR   Marginal VFR   IFR   Intensive IFR   Very Intensive IFR
Visi :
Ceiling :
>= 8 km
>= 3000ft
5 to 8 km
1000 to 3000 ft
1500m to 5 km
500 to 1000 ft
800 to 1500m
200 to 500 ft
< 800m
< 200 ft
Symbols :   Thunderstorms  Fog  Heavy snow  Heavy precipitations  Wind > 20 kt
SIGMETs :     Misc.  Thunderstorms  Icing  Turbulence  Mountain Waves  Volcanic Ashes






- Airport Elevation : 327 ft
- IATA code : BHX


EGBB - Birmingham

CURRENT METAR :
  • 270250Z 15002KT 9999 BKN031 00/M00 Q1040

EXPIRED METARs :
  • 270220Z VRB01KT CAVOK M00/M01 Q1040
  • 270150Z VRB01KT CAVOK 00/M01 Q1040
  • 270120Z 20001KT CAVOK 01/M00 Q1040
  • 270050Z 00000KT CAVOK M00/M01 Q1040
  • 270020Z 19002KT CAVOK 00/M00 Q1040

TAF TAF EGBB
Valid from the 27 at 00:00 until the 28 at 00:00 UTC


262302Z 2700/2724 19003KT 9999 FEW035
TEMPO 2700/2712 7000
PROB40 2705/2711 2000 BR
ATIS : +44 121 780 0910



MET'MAP, your aeronautical weather chart ! - Copyright ORBIFLY December 2007 - Disclaimer

ORBIFLY MET'MAP TEAM :

Programming & Development : Alexandra Zaïnal
Concept & original design : Baudouin d'Aumeries
Assistance for programming : Marc-Olivier Méhu
Technical & hardware support : Manuel Goepfert

Contact : metmap@orbifly.com




SOURCES & CREDITS :

   NOAA